sensor_id;sensor_type;location;lat;lon;timestamp;pressure;altitude;pressure_sealevel;temperature;humidity
75604;BME280;64187;51.010;13.792;2024-03-23T00:57:31;99450.00;;;10.67;80.89
75604;BME280;64187;51.010;13.792;2024-03-23T01:02:29;99449.91;;;10.47;82.01
75604;BME280;64187;51.010;13.792;2024-03-23T01:07:27;99467.44;;;10.34;83.18
75604;BME280;64187;51.010;13.792;2024-03-23T01:12:25;99462.06;;;10.39;83.54
75604;BME280;64187;51.010;13.792;2024-03-23T01:17:22;99461.25;;;10.39;83.95
75604;BME280;64187;51.010;13.792;2024-03-23T01:22:20;99444.47;;;10.37;82.67
75604;BME280;64187;51.010;13.792;2024-03-23T01:27:18;99423.16;;;10.55;80.71
75604;BME280;64187;51.010;13.792;2024-03-23T01:32:16;99421.09;;;10.25;83.71
75604;BME280;64187;51.010;13.792;2024-03-23T01:37:14;99421.19;;;9.98;84.79
75604;BME280;64187;51.010;13.792;2024-03-23T01:42:12;99409.00;;;9.96;84.35
75604;BME280;64187;51.010;13.792;2024-03-23T01:47:10;99407.06;;;9.86;84.68
75604;BME280;64187;51.010;13.792;2024-03-23T01:52:08;99400.47;;;9.66;85.59
75604;BME280;64187;51.010;13.792;2024-03-23T01:57:07;99392.53;;;9.55;86.35
75604;BME280;64187;51.010;13.792;2024-03-23T02:02:05;99383.06;;;9.52;87.26
75604;BME280;64187;51.010;13.792;2024-03-23T02:07:03;99390.81;;;9.43;87.37
75604;BME280;64187;51.010;13.792;2024-03-23T02:12:03;99392.03;;;9.31;88.58
75604;BME280;64187;51.010;13.792;2024-03-23T02:17:01;99378.41;;;9.47;87.30
75604;BME280;64187;51.010;13.792;2024-03-23T02:21:59;99363.59;;;9.50;87.57
75604;BME280;64187;51.010;13.792;2024-03-23T02:26:57;99364.00;;;9.32;89.33
75604;BME280;64187;51.010;13.792;2024-03-23T02:31:55;99351.72;;;9.56;88.95
75604;BME280;64187;51.010;13.792;2024-03-23T02:36:53;99341.25;;;9.65;88.84
75604;BME280;64187;51.010;13.792;2024-03-23T02:41:51;99338.22;;;9.56;89.25
75604;BME280;64187;51.010;13.792;2024-03-23T02:46:48;99331.91;;;9.40;89.75
75604;BME280;64187;51.010;13.792;2024-03-23T02:51:47;99336.09;;;9.63;89.29
75604;BME280;64187;51.010;13.792;2024-03-23T02:56:46;99329.44;;;9.39;90.54
75604;BME280;64187;51.010;13.792;2024-03-23T03:01:44;99334.69;;;9.51;90.45
75604;BME280;64187;51.010;13.792;2024-03-23T03:06:42;99335.78;;;9.55;89.66
75604;BME280;64187;51.010;13.792;2024-03-23T03:11:39;99313.88;;;9.51;90.24
75604;BME280;64187;51.010;13.792;2024-03-23T03:16:37;99307.06;;;9.43;91.38
75604;BME280;64187;51.010;13.792;2024-03-23T03:21:36;99288.84;;;9.66;89.74
75604;BME280;64187;51.010;13.792;2024-03-23T03:26:34;99289.44;;;9.31;92.80
75604;BME280;64187;51.010;13.792;2024-03-23T03:31:31;99285.16;;;9.35;92.07
75604;BME280;64187;51.010;13.792;2024-03-23T03:36:29;99278.59;;;9.25;91.49
75604;BME280;64187;51.010;13.792;2024-03-23T03:41:27;99282.00;;;9.11;92.43
75604;BME280;64187;51.010;13.792;2024-03-23T03:46:25;99277.00;;;9.30;91.60
75604;BME280;64187;51.010;13.792;2024-03-23T03:51:23;99276.50;;;9.38;90.84
75604;BME280;64187;51.010;13.792;2024-03-23T03:56:21;99267.69;;;9.10;92.70
75604;BME280;64187;51.010;13.792;2024-03-23T04:01:20;99248.56;;;8.79;93.97
75604;BME280;64187;51.010;13.792;2024-03-23T04:06:19;99244.84;;;8.91;94.22
75604;BME280;64187;51.010;13.792;2024-03-23T04:11:17;99247.94;;;8.72;94.50
75604;BME280;64187;51.010;13.792;2024-03-23T04:16:27;99241.53;;;8.51;96.27
75604;BME280;64187;51.010;13.792;2024-03-23T04:21:25;99218.69;;;8.59;94.62
75604;BME280;64187;51.010;13.792;2024-03-23T04:26:23;99232.47;;;8.35;96.27
75604;BME280;64187;51.010;13.792;2024-03-23T04:31:21;99229.38;;;8.49;94.61
75604;BME280;64187;51.010;13.792;2024-03-23T04:36:19;99199.75;;;8.54;94.19
75604;BME280;64187;51.010;13.792;2024-03-23T04:41:17;99194.31;;;8.49;94.55
75604;BME280;64187;51.010;13.792;2024-03-23T04:46:15;99186.28;;;8.54;95.82
75604;BME280;64187;51.010;13.792;2024-03-23T04:51:23;99173.97;;;8.68;93.28
75604;BME280;64187;51.010;13.792;2024-03-23T04:56:21;99168.00;;;8.61;91.88
75604;BME280;64187;51.010;13.792;2024-03-23T05:01:21;99158.03;;;8.67;92.02
75604;BME280;64187;51.010;13.792;2024-03-23T05:06:22;99123.31;;;8.75;92.12
75604;BME280;64187;51.010;13.792;2024-03-23T05:11:20;99110.03;;;8.36;95.08
75604;BME280;64187;51.010;13.792;2024-03-23T05:16:18;99105.75;;;8.35;96.15
75604;BME280;64187;51.010;13.792;2024-03-23T05:21:16;99098.22;;;8.37;95.74
75604;BME280;64187;51.010;13.792;2024-03-23T05:26:14;99088.72;;;8.30;95.62
75604;BME280;64187;51.010;13.792;2024-03-23T05:31:12;99089.94;;;8.49;93.91
75604;BME280;64187;51.010;13.792;2024-03-23T05:36:10;99069.03;;;9.14;90.14
75604;BME280;64187;51.010;13.792;2024-03-23T05:41:09;99079.22;;;9.02;91.20
75604;BME280;64187;51.010;13.792;2024-03-23T05:46:08;99078.72;;;9.15;90.76
75604;BME280;64187;51.010;13.792;2024-03-23T05:51:06;99077.47;;;9.38;89.39
75604;BME280;64187;51.010;13.792;2024-03-23T05:56:04;99077.13;;;9.19;89.94
75604;BME280;64187;51.010;13.792;2024-03-23T06:01:03;99050.56;;;10.41;100.00
75604;BME280;64187;51.010;13.792;2024-03-23T06:06:01;99025.38;;;12.97;85.21
75604;BME280;64187;51.010;13.792;2024-03-23T06:10:59;99023.75;;;10.65;80.92
75604;BME280;64187;51.010;13.792;2024-03-23T06:15:57;99014.59;;;9.74;86.85
75604;BME280;64187;51.010;13.792;2024-03-23T06:20:59;98997.78;;;9.25;89.75
75604;BME280;64187;51.010;13.792;2024-03-23T06:25:59;98984.59;;;9.39;89.74
75604;BME280;64187;51.010;13.792;2024-03-23T06:30:56;98980.19;;;9.08;92.23
75604;BME280;64187;51.010;13.792;2024-03-23T06:35:54;98969.84;;;8.94;93.97
75604;BME280;64187;51.010;13.792;2024-03-23T06:40:52;98945.84;;;8.93;94.20
75604;BME280;64187;51.010;13.792;2024-03-23T06:45:54;98932.13;;;8.99;93.67
75604;BME280;64187;51.010;13.792;2024-03-23T06:50:58;98922.69;;;9.17;92.92
75604;BME280;64187;51.010;13.792;2024-03-23T06:55:56;98922.41;;;9.14;93.38
75604;BME280;64187;51.010;13.792;2024-03-23T07:00:54;98916.22;;;9.18;93.21
75604;BME280;64187;51.010;13.792;2024-03-23T07:05:52;98920.56;;;9.30;93.08
75604;BME280;64187;51.010;13.792;2024-03-23T07:10:50;98915.16;;;9.35;92.70
75604;BME280;64187;51.010;13.792;2024-03-23T07:15:52;98909.75;;;9.50;91.52
75604;BME280;64187;51.010;13.792;2024-03-23T07:20:57;98907.59;;;9.67;90.21
75604;BME280;64187;51.010;13.792;2024-03-23T07:26:03;98880.00;;;8.99;94.47
75604;BME280;64187;51.010;13.792;2024-03-23T07:31:05;98847.66;;;9.40;93.08
75604;BME280;64187;51.010;13.792;2024-03-23T07:36:04;98857.91;;;9.48;91.61
75604;BME280;64187;51.010;13.792;2024-03-23T07:41:10;98839.25;;;9.72;91.05
75604;BME280;64187;51.010;13.792;2024-03-23T07:46:09;98833.56;;;9.84;90.87
75604;BME280;64187;51.010;13.792;2024-03-23T07:56:07;98827.75;;;10.31;88.39
75604;BME280;64187;51.010;13.792;2024-03-23T08:01:10;98798.97;;;10.46;86.57
75604;BME280;64187;51.010;13.792;2024-03-23T08:11:06;98780.38;;;10.39;88.12
75604;BME280;64187;51.010;13.792;2024-03-23T08:16:04;98754.19;;;11.08;86.63
75604;BME280;64187;51.010;13.792;2024-03-23T08:21:04;98756.13;;;10.97;85.67
75604;BME280;64187;51.010;13.792;2024-03-23T08:26:07;98752.00;;;11.05;85.87
75604;BME280;64187;51.010;13.792;2024-03-23T08:31:07;98735.38;;;11.46;84.20
75604;BME280;64187;51.010;13.792;2024-03-23T08:36:07;98722.38;;;11.96;81.13
75604;BME280;64187;51.010;13.792;2024-03-23T08:41:07;98715.88;;;12.35;80.75
75604;BME280;64187;51.010;13.792;2024-03-23T08:46:15;98727.03;;;12.34;80.60
75604;BME280;64187;51.010;13.792;2024-03-23T08:51:15;98735.97;;;11.67;82.91
75604;BME280;64187;51.010;13.792;2024-03-23T08:56:13;98737.44;;;11.30;85.38
75604;BME280;64187;51.010;13.792;2024-03-23T09:01:13;98722.13;;;11.45;86.62
75604;BME280;64187;51.010;13.792;2024-03-23T09:06:13;98716.78;;;11.82;84.11
75604;BME280;64187;51.010;13.792;2024-03-23T09:11:13;98725.13;;;12.15;82.23
75604;BME280;64187;51.010;13.792;2024-03-23T09:16:12;98722.56;;;12.00;82.92
75604;BME280;64187;51.010;13.792;2024-03-23T09:21:11;98728.56;;;12.40;81.62
75604;BME280;64187;51.010;13.792;2024-03-23T09:26:10;98733.97;;;12.59;81.47
75604;BME280;64187;51.010;13.792;2024-03-23T09:31:09;98743.69;;;12.65;80.25
75604;BME280;64187;51.010;13.792;2024-03-23T09:36:12;98748.28;;;12.64;76.56
75604;BME280;64187;51.010;13.792;2024-03-23T09:41:09;98736.59;;;12.83;75.91
75604;BME280;64187;51.010;13.792;2024-03-23T09:46:07;98759.56;;;12.71;74.85
75604;BME280;64187;51.010;13.792;2024-03-23T09:51:05;98813.72;;;11.13;85.07
75604;BME280;64187;51.010;13.792;2024-03-23T09:56:07;98821.19;;;10.43;91.93
75604;BME280;64187;51.010;13.792;2024-03-23T10:01:07;98855.03;;;10.25;93.00
75604;BME280;64187;51.010;13.792;2024-03-23T10:06:05;98892.13;;;8.91;94.41
75604;BME280;64187;51.010;13.792;2024-03-23T10:11:13;98934.38;;;8.55;94.41
75604;BME280;64187;51.010;13.792;2024-03-23T10:16:21;98975.22;;;8.31;94.36
75604;BME280;64187;51.010;13.792;2024-03-23T10:21:19;99002.81;;;7.20;94.04
75604;BME280;64187;51.010;13.792;2024-03-23T10:26:21;99061.56;;;6.62;92.35
75604;BME280;64187;51.010;13.792;2024-03-23T10:31:20;99104.03;;;6.26;87.78
75604;BME280;64187;51.010;13.792;2024-03-23T10:36:19;99131.88;;;6.37;88.45
75604;BME280;64187;51.010;13.792;2024-03-23T10:41:18;99158.16;;;6.18;89.07
75604;BME280;64187;51.010;13.792;2024-03-23T10:46:16;99202.13;;;6.12;91.65
75604;BME280;64187;51.010;13.792;2024-03-23T10:51:15;99218.84;;;6.02;93.16
75604;BME280;64187;51.010;13.792;2024-03-23T10:56:13;99253.34;;;6.22;90.93
75604;BME280;64187;51.010;13.792;2024-03-23T11:01:13;99255.78;;;5.71;91.65
75604;BME280;64187;51.010;13.792;2024-03-23T11:06:35;99268.41;;;5.82;93.74
75604;BME280;64187;51.010;13.792;2024-03-23T11:11:33;99280.41;;;5.92;92.81
75604;BME280;64187;51.010;13.792;2024-03-23T11:16:31;99284.88;;;5.74;91.96
75604;BME280;64187;51.010;13.792;2024-03-23T11:21:52;99272.97;;;5.94;95.14
75604;BME280;64187;51.010;13.792;2024-03-23T11:26:51;99288.00;;;5.95;91.54
75604;BME280;64187;51.010;13.792;2024-03-23T11:31:50;99289.31;;;6.21;90.75
75604;BME280;64187;51.010;13.792;2024-03-23T11:36:48;99314.00;;;6.06;89.50
75604;BME280;64187;51.010;13.792;2024-03-23T11:41:56;99344.88;;;5.92;90.18
75604;BME280;64187;51.010;13.792;2024-03-23T11:47:07;99351.06;;;5.69;90.59
75604;BME280;64187;51.010;13.792;2024-03-23T11:52:05;99357.25;;;5.81;90.96
75604;BME280;64187;51.010;13.792;2024-03-23T11:57:07;99360.63;;;5.88;91.76
75604;BME280;64187;51.010;13.792;2024-03-23T12:02:18;99355.78;;;6.25;91.52
75604;BME280;64187;51.010;13.792;2024-03-23T12:07:17;99343.66;;;6.23;87.85
75604;BME280;64187;51.010;13.792;2024-03-23T12:12:19;99355.72;;;6.09;90.14
75604;BME280;64187;51.010;13.792;2024-03-23T12:17:17;99341.22;;;6.50;86.06
75604;BME280;64187;51.010;13.792;2024-03-23T12:22:14;99346.53;;;6.90;83.50
75604;BME280;64187;51.010;13.792;2024-03-23T12:27:12;99357.56;;;6.32;84.54
75604;BME280;64187;51.010;13.792;2024-03-23T12:32:11;99340.13;;;6.34;83.11
75604;BME280;64187;51.010;13.792;2024-03-23T12:37:09;99335.47;;;7.04;80.76
75604;BME280;64187;51.010;13.792;2024-03-23T12:42:07;99325.69;;;6.98;80.02
75604;BME280;64187;51.010;13.792;2024-03-23T12:47:05;99350.06;;;6.62;80.25
75604;BME280;64187;51.010;13.792;2024-03-23T12:52:03;99359.75;;;6.92;78.25
75604;BME280;64187;51.010;13.792;2024-03-23T12:57:02;99379.69;;;7.25;77.64
75604;BME280;64187;51.010;13.792;2024-03-23T13:02:00;99400.06;;;7.04;76.17
75604;BME280;64187;51.010;13.792;2024-03-23T13:06:58;99375.41;;;6.38;78.30
75604;BME280;64187;51.010;13.792;2024-03-23T13:11:56;99353.38;;;6.81;77.75
75604;BME280;64187;51.010;13.792;2024-03-23T13:16:54;99366.13;;;6.45;77.39
75604;BME280;64187;51.010;13.792;2024-03-23T13:21:53;99409.84;;;6.41;77.95
75604;BME280;64187;51.010;13.792;2024-03-23T13:26:52;99430.56;;;6.40;76.07
75604;BME280;64187;51.010;13.792;2024-03-23T13:31:51;99448.88;;;6.55;75.88
75604;BME280;64187;51.010;13.792;2024-03-23T13:36:49;99460.81;;;6.47;75.78
75604;BME280;64187;51.010;13.792;2024-03-23T13:41:47;99453.44;;;6.95;75.16
75604;BME280;64187;51.010;13.792;2024-03-23T13:46:45;99435.75;;;6.99;74.44
75604;BME280;64187;51.010;13.792;2024-03-23T13:51:46;99417.25;;;7.03;72.70
75604;BME280;64187;51.010;13.792;2024-03-23T13:56:44;99401.41;;;7.69;70.13
75604;BME280;64187;51.010;13.792;2024-03-23T14:01:43;99384.56;;;7.95;68.33
75604;BME280;64187;51.010;13.792;2024-03-23T14:06:43;99384.44;;;8.29;66.82
75604;BME280;64187;51.010;13.792;2024-03-23T14:11:43;99393.34;;;8.08;66.65
75604;BME280;64187;51.010;13.792;2024-03-23T14:16:41;99429.06;;;7.98;66.47
75604;BME280;64187;51.010;13.792;2024-03-23T14:21:39;99423.69;;;7.81;66.64
75604;BME280;64187;51.010;13.792;2024-03-23T14:26:37;99431.00;;;8.03;65.79
75604;BME280;64187;51.010;13.792;2024-03-23T14:31:35;99435.53;;;8.19;64.79
75604;BME280;64187;51.010;13.792;2024-03-23T14:36:33;99409.66;;;8.18;64.87
75604;BME280;64187;51.010;13.792;2024-03-23T14:41:30;99415.00;;;8.13;64.78
75604;BME280;64187;51.010;13.792;2024-03-23T14:46:28;99410.72;;;8.56;62.71
75604;BME280;64187;51.010;13.792;2024-03-23T14:51:26;99391.28;;;8.37;62.46
75604;BME280;64187;51.010;13.792;2024-03-23T14:56:25;99384.59;;;8.61;63.28
75604;BME280;64187;51.010;13.792;2024-03-23T15:01:23;99395.44;;;8.67;60.88
75604;BME280;64187;51.010;13.792;2024-03-23T15:06:20;99390.06;;;8.45;60.07
75604;BME280;64187;51.010;13.792;2024-03-23T15:11:18;99385.41;;;8.62;60.59
75604;BME280;64187;51.010;13.792;2024-03-23T15:16:17;99381.72;;;8.68;59.38
75604;BME280;64187;51.010;13.792;2024-03-23T15:21:18;99375.69;;;8.61;60.66
75604;BME280;64187;51.010;13.792;2024-03-23T15:26:19;99370.22;;;9.05;60.21
75604;BME280;64187;51.010;13.792;2024-03-23T15:31:17;99360.59;;;9.14;60.51
75604;BME280;64187;51.010;13.792;2024-03-23T15:36:15;99355.88;;;8.72;59.68
75604;BME280;64187;51.010;13.792;2024-03-23T15:41:13;99344.47;;;8.92;59.85
75604;BME280;64187;51.010;13.792;2024-03-23T15:46:11;99353.56;;;9.13;60.74
75604;BME280;64187;51.010;13.792;2024-03-23T15:51:09;99348.59;;;9.32;61.05
75604;BME280;64187;51.010;13.792;2024-03-23T15:56:07;99333.28;;;9.43;61.10
75604;BME280;64187;51.010;13.792;2024-03-23T16:01:06;99327.34;;;9.46;61.87
75604;BME280;64187;51.010;13.792;2024-03-23T16:06:07;99311.47;;;9.55;62.78
75604;BME280;64187;51.010;13.792;2024-03-23T16:11:06;99311.09;;;8.76;64.46
75604;BME280;64187;51.010;13.792;2024-03-23T16:16:05;99319.69;;;9.00;64.05
75604;BME280;64187;51.010;13.792;2024-03-23T16:21:07;99323.16;;;8.69;65.53
75604;BME280;64187;51.010;13.792;2024-03-23T16:26:05;99341.09;;;9.07;65.22
75604;BME280;64187;51.010;13.792;2024-03-23T16:31:08;99385.69;;;7.99;65.18
75604;BME280;64187;51.010;13.792;2024-03-23T16:36:08;99386.50;;;8.00;67.08
75604;BME280;64187;51.010;13.792;2024-03-23T16:41:11;99392.41;;;8.19;67.30
75604;BME280;64187;51.010;13.792;2024-03-23T16:46:15;99388.00;;;7.74;69.67
75604;BME280;64187;51.010;13.792;2024-03-23T16:51:13;99400.00;;;7.83;69.57
75604;BME280;64187;51.010;13.792;2024-03-23T16:56:11;99408.97;;;7.72;69.45
75604;BME280;64187;51.010;13.792;2024-03-23T17:01:11;99416.31;;;7.26;70.64
75604;BME280;64187;51.010;13.792;2024-03-23T17:06:19;99419.13;;;7.02;72.43
75604;BME280;64187;51.010;13.792;2024-03-23T17:11:17;99420.78;;;7.03;72.41
75604;BME280;64187;51.010;13.792;2024-03-23T17:16:16;99428.09;;;6.91;73.72
75604;BME280;64187;51.010;13.792;2024-03-23T17:21:14;99435.19;;;6.97;73.88
75604;BME280;64187;51.010;13.792;2024-03-23T17:26:11;99432.00;;;7.00;74.54
75604;BME280;64187;51.010;13.792;2024-03-23T17:31:17;99416.56;;;7.24;74.17
75604;BME280;64187;51.010;13.792;2024-03-23T17:36:16;99419.44;;;6.89;74.28
75604;BME280;64187;51.010;13.792;2024-03-23T17:41:14;99404.41;;;6.93;73.89
75604;BME280;64187;51.010;13.792;2024-03-23T17:46:12;99414.75;;;7.30;74.30
75604;BME280;64187;51.010;13.792;2024-03-23T17:51:10;99392.72;;;6.99;72.90
75604;BME280;64187;51.010;13.792;2024-03-23T17:56:08;99390.66;;;6.89;75.33
75604;BME280;64187;51.010;13.792;2024-03-23T18:01:07;99401.69;;;7.05;72.97
75604;BME280;64187;51.010;13.792;2024-03-23T18:06:05;99413.38;;;6.82;74.37
75604;BME280;64187;51.010;13.792;2024-03-23T18:11:08;99416.72;;;7.34;71.65
75604;BME280;64187;51.010;13.792;2024-03-23T18:16:06;99414.53;;;10.59;76.37
75604;BME280;64187;51.010;13.792;2024-03-23T18:21:04;99416.91;;;7.62;70.73
75604;BME280;64187;51.010;13.792;2024-03-23T18:26:02;99426.38;;;7.47;70.98
75604;BME280;64187;51.010;13.792;2024-03-23T18:31:01;99432.56;;;7.02;72.95
75604;BME280;64187;51.010;13.792;2024-03-23T18:35:59;99426.06;;;6.98;73.11
75604;BME280;64187;51.010;13.792;2024-03-23T18:40:58;99432.78;;;6.84;73.08
75604;BME280;64187;51.010;13.792;2024-03-23T18:45:56;99422.78;;;6.67;72.31
75604;BME280;64187;51.010;13.792;2024-03-23T18:50:53;99416.44;;;6.74;73.31
75604;BME280;64187;51.010;13.792;2024-03-23T18:55:54;99414.69;;;6.67;72.14
75604;BME280;64187;51.010;13.792;2024-03-23T19:01:03;99414.56;;;6.74;71.52
75604;BME280;64187;51.010;13.792;2024-03-23T19:06:02;99423.03;;;6.66;72.51
75604;BME280;64187;51.010;13.792;2024-03-23T19:11:02;99409.81;;;6.64;71.62
75604;BME280;64187;51.010;13.792;2024-03-23T19:16:01;99406.00;;;6.49;72.06
75604;BME280;64187;51.010;13.792;2024-03-23T19:20:59;99410.13;;;6.68;72.34
75604;BME280;64187;51.010;13.792;2024-03-23T19:25:58;99412.00;;;6.39;72.03
75604;BME280;64187;51.010;13.792;2024-03-23T19:30:56;99409.75;;;6.36;74.03
75604;BME280;64187;51.010;13.792;2024-03-23T19:35:56;99408.78;;;6.01;72.42
75604;BME280;64187;51.010;13.792;2024-03-23T19:40:55;99414.53;;;6.45;70.68
75604;BME280;64187;51.010;13.792;2024-03-23T19:45:53;99415.19;;;6.12;71.88
75604;BME280;64187;51.010;13.792;2024-03-23T19:50:58;99421.72;;;6.16;71.37
75604;BME280;64187;51.010;13.792;2024-03-23T19:55:57;99423.72;;;6.09;71.61
75604;BME280;64187;51.010;13.792;2024-03-23T20:00:55;99415.41;;;5.87;73.20
75604;BME280;64187;51.010;13.792;2024-03-23T20:05:59;99417.16;;;6.05;73.21
75604;BME280;64187;51.010;13.792;2024-03-23T20:10:57;99413.53;;;5.88;74.04
75604;BME280;64187;51.010;13.792;2024-03-23T20:15:58;99407.22;;;5.82;74.94
75604;BME280;64187;51.010;13.792;2024-03-23T20:21:03;99409.94;;;5.94;73.61
75604;BME280;64187;51.010;13.792;2024-03-23T20:26:03;99407.94;;;6.01;73.50
75604;BME280;64187;51.010;13.792;2024-03-23T20:31:02;99406.06;;;5.90;74.74
75604;BME280;64187;51.010;13.792;2024-03-23T20:36:06;99402.63;;;5.35;76.25
75604;BME280;64187;51.010;13.792;2024-03-23T20:41:04;99404.25;;;5.25;76.67
75604;BME280;64187;51.010;13.792;2024-03-23T20:46:03;99402.38;;;5.25;76.13
75604;BME280;64187;51.010;13.792;2024-03-23T20:51:04;99402.16;;;5.27;76.73
75604;BME280;64187;51.010;13.792;2024-03-23T20:56:02;99398.31;;;5.46;77.52
75604;BME280;64187;51.010;13.792;2024-03-23T21:01:02;99397.59;;;5.27;77.18
75604;BME280;64187;51.010;13.792;2024-03-23T21:06:01;99397.13;;;5.30;77.00
75604;BME280;64187;51.010;13.792;2024-03-23T21:11:04;99388.59;;;5.22;77.28
75604;BME280;64187;51.010;13.792;2024-03-23T21:16:02;99391.22;;;4.98;78.71
75604;BME280;64187;51.010;13.792;2024-03-23T21:21:01;99378.22;;;4.83;80.08
75604;BME280;64187;51.010;13.792;2024-03-23T21:26:02;99379.38;;;4.75;80.60
75604;BME280;64187;51.010;13.792;2024-03-23T21:31:03;99383.59;;;4.83;79.92
75604;BME280;64187;51.010;13.792;2024-03-23T21:36:02;99378.91;;;4.48;81.14
75604;BME280;64187;51.010;13.792;2024-03-23T21:41:01;99378.25;;;4.35;81.20
75604;BME280;64187;51.010;13.792;2024-03-23T21:46:01;99376.13;;;4.25;81.43
75604;BME280;64187;51.010;13.792;2024-03-23T21:51:01;99374.91;;;4.02;82.72
75604;BME280;64187;51.010;13.792;2024-03-23T21:55:59;99376.63;;;3.97;84.02
75604;BME280;64187;51.010;13.792;2024-03-23T22:00:57;99376.47;;;3.73;85.99
75604;BME280;64187;51.010;13.792;2024-03-23T22:05:55;99379.38;;;3.90;84.28
75604;BME280;64187;51.010;13.792;2024-03-23T22:10:57;99375.22;;;4.13;83.38
75604;BME280;64187;51.010;13.792;2024-03-23T22:15:59;99369.13;;;4.05;82.67
75604;BME280;64187;51.010;13.792;2024-03-23T22:20:59;99354.69;;;4.06;83.15
75604;BME280;64187;51.010;13.792;2024-03-23T22:25:58;99361.75;;;4.01;82.45
75604;BME280;64187;51.010;13.792;2024-03-23T22:31:03;99362.66;;;4.13;80.81
75604;BME280;64187;51.010;13.792;2024-03-23T22:36:02;99362.72;;;4.25;78.60
75604;BME280;64187;51.010;13.792;2024-03-23T22:41:02;99355.91;;;4.41;77.12
75604;BME280;64187;51.010;13.792;2024-03-23T22:46:02;99348.28;;;4.26;75.84
75604;BME280;64187;51.010;13.792;2024-03-23T22:51:02;99346.56;;;4.13;76.89
75604;BME280;64187;51.010;13.792;2024-03-23T22:56:01;99346.47;;;4.20;77.90
75604;BME280;64187;51.010;13.792;2024-03-23T23:00:58;99345.19;;;4.41;74.38
75604;BME280;64187;51.010;13.792;2024-03-23T23:06:04;99339.56;;;4.12;76.08
75604;BME280;64187;51.010;13.792;2024-03-23T23:11:02;99349.09;;;4.57;74.54
75604;BME280;64187;51.010;13.792;2024-03-23T23:16:02;99331.88;;;4.94;73.65
75604;BME280;64187;51.010;13.792;2024-03-23T23:21:01;99335.16;;;5.08;73.76
75604;BME280;64187;51.010;13.792;2024-03-23T23:25:59;99334.75;;;4.81;74.01
75604;BME280;64187;51.010;13.792;2024-03-23T23:31:00;99332.47;;;4.66;73.09
75604;BME280;64187;51.010;13.792;2024-03-23T23:35:59;99328.91;;;4.84;73.76
75604;BME280;64187;51.010;13.792;2024-03-23T23:40:57;99327.94;;;4.67;73.36
75604;BME280;64187;51.010;13.792;2024-03-23T23:45:55;99321.22;;;4.76;75.06
75604;BME280;64187;51.010;13.792;2024-03-23T23:50:55;99318.06;;;4.67;74.00
75604;BME280;64187;51.010;13.792;2024-03-23T23:55:53;99318.41;;;4.71;73.70
